アルジェ の空港の天気 - METARとTAF

ウアリ・ブーメディアン空港 ( DAAG / ALG ) - アルジェリア アルジェ
飛行場実況気象(Metar)
観測時間04/21 16:00 CET (04/21 15:00 UTC)
風向・風速北北東 4m/s
視程8000m
天気現象
全天の4割程度の雲 雲底高度 400m
少しの雲 雲底高度 610m
全天の8割程度の雲 雲底高度 1010m
気温16℃
湿度88%
気圧1001hPa
METARDAAG 211500Z 02007KT 8000 SCT013 FEW020TCU BKN033 16/14 Q1001
過去の天気等 Google飛行場航空写真 Wunderground天気予報

過去48時間のMETAR

飛行場予報(TAF)
発表時間: 4/21 12:00 CET (4/21 11:00 UTC)
予報対象時間: 21日13時 CET ~ 22日13時 CET
風向・風速北 5m/s
視程7000m
全天の4割程度の雲 雲底高度 400m
全天の8割程度の雲 雲底高度 1100m
21日14時 CET ~ 21日21時 CET に 確率 40% で一時的に
視程4000m
天気現象弱い雨
少しの積乱雲 雲底高度 700m
21日16時 CET ~ 21日22時 CET に 確率 30% で一時的に
風向・風速北 8m/s 瞬間風速 13m/s
視程3000m
天気現象弱い雷雨
全天の8割程度の雲 雲底高度 460m
少しの積乱雲 雲底高度 610m
21日21時 CET ~ 21日24時 CET に徐々に
風向・風速不定 1m/s
TAF DAAG 211100Z 2112/2212 35010KT 7000 SCT013 BKN036
PROB40 TEMPO 2113/2120 4000 -RA FEW023CB
PROB30 TEMPO 2115/2121 35015G25KT 3000 -TSRA BKN015 FEW020CB
BECMG 2120/2123 VRB02KT